< < Back
Terminal Aerodrome Forecast


Current Version              Previous Versions:   1  2  3  4  5  6  7  8  9  

Terminal Aerodrome Forecast

576
FTUS42 KJAX 271500 AAA
TAFSSI
TAF AMD
KSSI 271500Z 2715/2812 01004KT P6SM VCSH SCT025 BKN030 BKN040
     FM272100 06010KT P6SM SCT040 BKN080
     FM280000 09006KT P6SM FEW035 SCT250=

Latest METAR

294
SAUS70 KWBC 271600 RRF
MTRSSI
METAR KSSI 271553Z AUTO 08005KT 10SM BKN032 BKN041 29/23 A3008 RMK AO2
SLP187 T02940228


USA.gov is the U.S. government's official web portal to all federal, state and local government web resources and services.